Time;durP1;ratioP1;P1;durP2;ratioP2;P2;SDS_P1;SDS_P2;PMS_P1;PMS_P2;Temp;Humidity;BMP_temperature;BMP_pressure;BME280_temperature;BME280_humidity;BME280_pressure;Samples;Min_cycle;Max_cycle;Signal;HPM_P1;HPM_P2
2023/07/11 00:01:26;;;;;;;;;;;;;;;18.02;72.83;101390.42;108869;1262;67450;-86
2023/07/11 00:03:53;;;;;;;;;;;;;;;17.89;72.92;101395.86;108716;1256;125564;-86
2023/07/11 00:06:20;;;;;;;;;;;;;;;17.79;73.17;101392.59;108790;1259;59970;-86
2023/07/11 00:08:47;;;;;;;;;;;;;;;17.76;73.43;101390.97;108664;1257;59177;-86
2023/07/11 00:11:15;;;;;;;;;;;;;;;17.73;73.59;101396.81;108615;1258;126277;-86
2023/07/11 00:13:42;;;;;;;;;;;;;;;17.68;73.80;101402.82;108736;1256;67080;-86
2023/07/11 00:16:09;;;;;;;;;;;;;;;17.66;73.97;101405.64;108507;1256;124945;-86
2023/07/11 00:18:36;;;;;;;;;;;;;;;17.66;74.01;101404.40;108859;1256;59353;-86
2023/07/11 00:21:04;;;;;;;;;;;;;;;17.65;74.07;101399.79;108755;1257;59951;-86
2023/07/11 00:23:31;;;;;;;;;;;;;;;17.65;74.13;101388.95;108683;1259;125278;-86
2023/07/11 00:25:58;;;;;;;;;;;;;;;17.64;73.95;101386.81;108794;1256;65878;-86
2023/07/11 00:28:25;;;;;;;;;;;;;;;17.64;73.97;101391.27;108524;1272;128415;-86
2023/07/11 00:30:52;;;;;;;;;;;;;;;17.65;73.97;101388.24;108735;1257;60572;-85
2023/07/11 00:33:19;;;;;;;;;;;;;;;17.66;73.96;101386.13;108770;1257;126238;-85
2023/07/11 00:35:49;;;;;;;;;;;;;;;17.69;74.11;101381.89;108697;1257;75092;-86
2023/07/11 00:38:22;;;;;;;;;;;;;;;17.72;73.94;101377.46;108680;1256;68332;-86
2023/07/11 00:40:50;;;;;;;;;;;;;;;17.72;74.02;101378.70;108803;1256;125226;-86
2023/07/11 00:43:17;;;;;;;;;;;;;;;17.74;73.91;101373.75;108845;1256;59120;-86
2023/07/11 00:46:02;;;;;;;;;;;;;;;17.75;73.94;101371.96;108640;1256;125119;-86
2023/07/11 00:48:34;;;;;;;;;;;;;;;17.76;74.08;101366.83;108864;1256;73856;-84
2023/07/11 00:51:01;;;;;;;;;;;;;;;17.77;74.13;101362.58;108806;1258;64652;-86
2023/07/11 00:53:30;;;;;;;;;;;;;;;17.77;74.07;101360.25;108614;1258;126408;-85
2023/07/11 00:55:58;;;;;;;;;;;;;;;17.78;74.16;101356.19;108772;1273;59406;-86
2023/07/11 00:58:25;;;;;;;;;;;;;;;17.79;74.25;101357.61;108540;1256;125401;-86
2023/07/11 01:00:52;;;;;;;;;;;;;;;17.80;74.35;101362.06;108773;1256;74449;-84
2023/07/11 01:03:21;;;;;;;;;;;;;;;17.81;74.34;101365.98;108683;1256;125638;-86
2023/07/11 01:05:47;;;;;;;;;;;;;;;17.80;74.26;101367.92;108713;1257;73300;-86
2023/07/11 01:08:15;;;;;;;;;;;;;;;17.79;74.30;101368.09;108751;1256;59517;-86
2023/07/11 01:10:41;;;;;;;;;;;;;;;17.80;74.41;101371.47;108640;1256;125443;-86
2023/07/11 01:13:10;;;;;;;;;;;;;;;17.80;74.41;101376.60;108851;1256;74710;-86
2023/07/11 01:15:37;;;;;;;;;;;;;;;17.79;74.34;101378.03;108751;1256;125583;-86
2023/07/11 01:18:03;;;;;;;;;;;;;;;17.78;74.36;101378.38;108754;1256;72861;-87
2023/07/11 01:20:30;;;;;;;;;;;;;;;17.77;74.48;101374.65;108872;1257;59552;-86
2023/07/11 01:22:57;;;;;;;;;;;;;;;17.78;74.47;101375.00;108665;1256;124930;-87
2023/07/11 01:25:24;;;;;;;;;;;;;;;17.78;74.56;101376.42;108743;1257;73405;-86
2023/07/11 01:27:56;;;;;;;;;;;;;;;17.77;74.60;101371.09;108691;1256;126408;-86
2023/07/11 01:30:24;;;;;;;;;;;;;;;17.77;74.65;101368.24;108796;1258;72960;-87
2023/07/11 01:32:51;;;;;;;;;;;;;;;17.76;74.72;101361.15;108780;1256;59401;-86
2023/07/11 01:35:18;;;;;;;;;;;;;;;17.73;74.40;101357.59;108704;1273;125747;-86
2023/07/11 01:37:45;;;;;;;;;;;;;;;17.70;74.42;101354.38;108865;1257;74493;-86
2023/07/11 01:40:15;;;;;;;;;;;;;;;17.68;74.29;101351.87;108629;1258;125003;-86
2023/07/11 01:42:42;;;;;;;;;;;;;;;17.66;74.30;101350.27;108745;1257;70693;-86
2023/07/11 01:45:09;;;;;;;;;;;;;;;17.63;74.23;101347.41;108736;1256;59465;-86
2023/07/11 01:47:46;;;;;;;;;;;;;;;17.62;74.18;101347.76;108758;1263;59492;-86
2023/07/11 01:50:16;;;;;;;;;;;;;;;17.59;74.22;101348.11;108772;1256;76040;-86
2023/07/11 01:52:43;;;;;;;;;;;;;;;17.58;74.18;101348.62;108618;1256;124889;-86
2023/07/11 01:55:10;;;;;;;;;;;;;;;17.57;74.36;101348.98;108788;1256;71621;-86
2023/07/11 01:57:37;;;;;;;;;;;;;;;17.57;74.32;101356.07;108735;1256;125630;-86
2023/07/11 02:00:07;;;;;;;;;;;;;;;17.53;74.31;101359.60;108829;1260;60180;-87
2023/07/11 02:02:34;;;;;;;;;;;;;;;17.49;74.35;101363.48;108819;1272;75076;-86
2023/07/11 02:05:01;;;;;;;;;;;;;;;17.46;74.38;101365.76;108688;1257;125366;-86
2023/07/11 02:07:28;;;;;;;;;;;;;;;17.44;74.31;101369.65;108754;1259;71456;-85
2023/07/11 02:09:55;;;;;;;;;;;;;;;17.42;74.40;101375.67;108720;1257;125725;-84
2023/07/11 02:12:22;;;;;;;;;;;;;;;17.41;74.51;101376.38;108654;1263;60532;-84
2023/07/11 02:14:49;;;;;;;;;;;;;;;17.40;74.60;101377.96;108831;1257;74650;-85
2023/07/11 02:17:16;;;;;;;;;;;;;;;17.39;74.60;101375.30;108642;1257;125152;-85
2023/07/11 02:19:46;;;;;;;;;;;;;;;17.34;74.64;101370.30;108833;1257;71235;-85
2023/07/11 02:22:13;;;;;;;;;;;;;;;17.34;74.81;101363.55;108614;1257;125315;-85
2023/07/11 02:24:40;;;;;;;;;;;;;;;17.34;74.89;101364.77;108776;1262;59483;-85
2023/07/11 02:27:07;;;;;;;;;;;;;;;17.33;74.93;101356.10;108718;1266;72696;-85
2023/07/11 02:29:34;;;;;;;;;;;;;;;17.34;75.06;101360.89;108706;1259;124817;-85
2023/07/11 02:32:01;;;;;;;;;;;;;;;17.35;74.99;101355.22;108882;1257;72837;-85
2023/07/11 02:34:28;;;;;;;;;;;;;;;17.34;75.05;101353.09;108777;1257;125020;-85
2023/07/11 02:36:55;;;;;;;;;;;;;;;17.32;75.12;101356.09;108741;1258;60162;-85
2023/07/11 02:39:22;;;;;;;;;;;;;;;17.30;75.15;101361.23;108658;1256;125205;-85
2023/07/11 02:41:49;;;;;;;;;;;;;;;17.27;75.19;101358.00;108650;1256;66906;-85
2023/07/11 02:44:16;;;;;;;;;;;;;;;17.25;75.26;101355.15;108801;1256;73196;-85
2023/07/11 02:46:43;;;;;;;;;;;;;;;17.24;75.37;101356.91;108626;1256;124965;-85
2023/07/11 02:49:12;;;;;;;;;;;;;;;17.25;75.49;101353.92;108820;1263;60144;-84
2023/07/11 02:51:39;;;;;;;;;;;;;;;17.27;75.44;101354.46;108719;1256;125464;-85
2023/07/11 02:54:06;;;;;;;;;;;;;;;17.27;75.48;101355.35;108730;1256;67069;-85
2023/07/11 02:56:34;;;;;;;;;;;;;;;17.27;75.53;101358.90;108773;1256;73529;-85
2023/07/11 02:59:03;;;;;;;;;;;;;;;17.30;75.64;101362.64;108651;1256;124816;-85
2023/07/11 03:01:31;;;;;;;;;;;;;;;17.33;75.65;101362.31;108775;1256;60025;-85
2023/07/11 03:03:58;;;;;;;;;;;;;;;17.33;75.62;101360.36;108707;1257;127323;-85
2023/07/11 03:06:25;;;;;;;;;;;;;;;17.33;75.51;101360.36;108778;1256;66281;-85
2023/07/11 03:08:52;;;;;;;;;;;;;;;17.32;75.54;101358.22;108707;1263;73002;-85
2023/07/11 03:11:19;;;;;;;;;;;;;;;17.33;75.58;101356.09;108538;1256;125328;-85
2023/07/11 03:13:46;;;;;;;;;;;;;;;17.31;75.54;101357.86;108800;1257;59938;-84
2023/07/11 03:16:16;;;;;;;;;;;;;;;17.31;75.70;101357.86;108697;1257;126453;-85
2023/07/11 03:18:43;;;;;;;;;;;;;;;17.34;75.76;101359.65;108732;1259;67038;-85
2023/07/11 03:21:09;;;;;;;;;;;;;;;17.39;75.91;101367.84;108681;1257;70369;-85
2023/07/11 03:23:36;;;;;;;;;;;;;;;17.43;75.88;101368.05;108710;1256;125278;-85
2023/07/11 03:26:07;;;;;;;;;;;;;;;17.46;75.85;101365.77;108828;1256;59474;-85
2023/07/11 03:28:33;;;;;;;;;;;;;;;17.49;75.81;101364.54;108643;1260;124202;-85
2023/07/11 03:31:00;;;;;;;;;;;;;;;17.53;75.87;101365.63;108845;1256;65940;-85
2023/07/11 03:33:27;;;;;;;;;;;;;;;17.55;75.76;101364.22;108613;1257;124985;-85
2023/07/11 03:35:54;;;;;;;;;;;;;;;17.55;75.63;101355.88;108857;1256;59261;-85
2023/07/11 03:38:21;;;;;;;;;;;;;;;17.54;75.56;101358.54;108661;1260;60040;-85
2023/07/11 03:40:51;;;;;;;;;;;;;;;17.54;75.65;101357.48;108542;1257;125302;-85
2023/07/11 03:43:19;;;;;;;;;;;;;;;17.56;75.63;101360.33;108828;1257;66824;-85
2023/07/11 03:45:46;;;;;;;;;;;;;;;17.59;75.64;101359.29;108728;1257;125728;-85
2023/07/11 03:48:16;;;;;;;;;;;;;;;17.62;75.53;101359.99;108859;1257;59325;-85
2023/07/11 03:50:46;;;;;;;;;;;;;;;17.64;75.50;101359.48;108862;1262;60306;-85
2023/07/11 03:53:13;;;;;;;;;;;;;;;17.70;75.56;101358.27;108773;1258;124813;-85
2023/07/11 03:55:43;;;;;;;;;;;;;;;17.76;75.53;101360.09;108869;1256;66932;-84
2023/07/11 03:58:10;;;;;;;;;;;;;;;17.84;75.55;101361.20;108786;1256;124065;-83
2023/07/11 04:00:39;;;;;;;;;;;;;;;17.94;75.44;101359.14;108659;1256;59293;-85
2023/07/11 04:03:08;;;;;;;;;;;;;;;18.06;75.35;101356.34;108607;1256;59898;-85
2023/07/11 04:05:35;;;;;;;;;;;;;;;18.17;75.19;101353.71;108537;1265;125014;-86
2023/07/11 04:08:03;;;;;;;;;;;;;;;18.28;74.93;101357.84;108815;1256;67706;-88
2023/07/11 04:10:30;;;;;;;;;;;;;;;18.35;74.77;101360.52;108597;1257;125881;-88
2023/07/11 04:12:58;;;;;;;;;;;;;;;18.38;74.59;101358.22;108627;1256;60863;-85
2023/07/11 04:15:25;;;;;;;;;;;;;;;18.35;74.41;101363.02;108739;1258;126045;-84
2023/07/11 04:17:55;;;;;;;;;;;;;;;18.33;74.42;101365.31;108756;1258;74905;-85
2023/07/11 04:20:22;;;;;;;;;;;;;;;18.35;74.47;101364.61;108854;1257;66932;-85
2023/07/11 04:22:51;;;;;;;;;;;;;;;18.42;74.51;101354.48;108584;1256;124788;-85
2023/07/11 04:25:18;;;;;;;;;;;;;;;18.51;74.41;101358.61;108830;1256;59564;-84
2023/07/11 04:27:45;;;;;;;;;;;;;;;18.56;74.23;101358.44;108678;1256;125455;-84
2023/07/11 04:30:12;;;;;;;;;;;;;;;18.63;74.22;101362.00;108904;1256;74461;-84
2023/07/11 04:32:39;;;;;;;;;;;;;;;18.72;74.19;101359.34;108912;1256;67306;-84
2023/07/11 04:35:13;;;;;;;;;;;;;;;18.84;74.05;101357.60;108565;1256;124942;-84
2023/07/11 04:37:40;;;;;;;;;;;;;;;19.03;74.12;101354.23;108730;1256;59363;-84
2023/07/11 04:40:08;;;;;;;;;;;;;;;19.21;73.89;101350.14;108686;1259;125356;-85
2023/07/11 04:42:37;;;;;;;;;;;;;;;19.31;73.41;101349.95;108679;1257;74791;-84
2023/07/11 04:45:05;;;;;;;;;;;;;;;19.45;73.32;101350.98;108776;1256;65460;-86
2023/07/11 04:47:34;;;;;;;;;;;;;;;19.64;73.03;101354.33;108529;1260;125499;-90
2023/07/11 04:50:01;;;;;;;;;;;;;;;20.46;74.84;101352.54;108721;1256;59432;-90
2023/07/11 04:52:28;;;;;;;;;;;;;;;21.68;73.04;101351.37;108699;1259;124817;-85
2023/07/11 04:54:55;;;;;;;;;;;;;;;21.84;70.27;101361.20;108825;1256;74342;-85
2023/07/11 04:57:22;;;;;;;;;;;;;;;21.65;69.45;101358.91;108637;1257;124871;-85
2023/07/11 04:59:49;;;;;;;;;;;;;;;21.60;69.43;101358.63;108730;1257;72659;-85
2023/07/11 05:02:16;;;;;;;;;;;;;;;21.56;68.80;101359.55;108701;1262;59239;-85
2023/07/11 05:04:43;;;;;;;;;;;;;;;21.50;68.91;101360.67;108551;1257;125090;-85
2023/07/11 05:07:10;;;;;;;;;;;;;;;21.49;68.60;101364.45;108733;1257;74751;-85
2023/07/11 05:09:40;;;;;;;;;;;;;;;21.42;68.24;101369.13;108601;1256;125727;-85
2023/07/11 05:12:07;;;;;;;;;;;;;;;21.35;68.25;101370.45;108692;1257;72788;-85
2023/07/11 05:14:34;;;;;;;;;;;;;;;21.31;68.45;101369.94;108618;1257;60083;-85
2023/07/11 05:17:01;;;;;;;;;;;;;;;21.25;68.50;101369.29;108565;1257;125836;-84
2023/07/11 05:19:28;;;;;;;;;;;;;;;21.18;68.52;101372.93;108690;1256;74718;-85
2023/07/11 05:21:55;;;;;;;;;;;;;;;21.07;68.37;101375.86;108567;1257;125675;-85
2023/07/11 05:24:22;;;;;;;;;;;;;;;21.03;68.45;101385.01;108844;1257;71974;-85
2023/07/11 05:26:49;;;;;;;;;;;;;;;20.98;68.45;101385.22;108744;1259;59206;-85
2023/07/11 05:29:16;;;;;;;;;;;;;;;20.84;68.37;101388.73;108727;1257;124030;-84
2023/07/11 05:31:43;;;;;;;;;;;;;;;20.69;68.56;101386.14;108727;1256;74786;-85
2023/07/11 05:34:11;;;;;;;;;;;;;;;20.62;68.91;101385.65;108640;1263;125286;-85
2023/07/11 05:36:38;;;;;;;;;;;;;;;20.53;69.06;101384.44;108704;1256;71935;-85
2023/07/11 05:39:06;;;;;;;;;;;;;;;20.49;69.19;101391.60;108684;1256;59121;-85
2023/07/11 05:41:36;;;;;;;;;;;;;;;20.47;69.24;101387.67;108686;1256;124430;-85
2023/07/11 05:44:03;;;;;;;;;;;;;;;20.47;69.28;101389.64;108708;1262;74402;-85
2023/07/11 05:46:30;;;;;;;;;;;;;;;20.49;69.46;101390.70;108720;1259;124036;-85
2023/07/11 05:48:57;;;;;;;;;;;;;;;20.53;69.54;101395.31;108781;1257;73099;-85
2023/07/11 05:51:24;;;;;;;;;;;;;;;20.58;69.48;101386.36;108580;1257;126456;-84
2023/07/11 05:53:51;;;;;;;;;;;;;;;20.64;69.49;101388.31;108804;1257;60313;-85
2023/07/11 05:56:18;;;;;;;;;;;;;;;20.72;69.50;101393.80;108777;1262;75319;-85
2023/07/11 05:58:46;;;;;;;;;;;;;;;20.70;69.17;101392.92;108658;1257;125115;-85
2023/07/11 06:01:15;;;;;;;;;;;;;;;20.68;69.07;101398.11;108903;1258;72923;-85
2023/07/11 06:03:45;;;;;;;;;;;;;;;20.74;69.26;101401.27;108785;1257;125140;-85
2023/07/11 06:06:15;;;;;;;;;;;;;;;20.86;69.21;101399.77;108754;1256;59682;-85
2023/07/11 06:08:42;;;;;;;;;;;;;;;20.97;68.98;101403.24;108682;1256;74547;-85
2023/07/11 06:11:09;;;;;;;;;;;;;;;21.06;68.59;101399.25;108560;1256;125510;-85
2023/07/11 06:13:37;;;;;;;;;;;;;;;21.17;68.51;101397.55;108664;1256;73477;-85
2023/07/11 06:16:05;;;;;;;;;;;;;;;21.31;68.46;101398.68;108580;1256;125148;-85
2023/07/11 06:18:35;;;;;;;;;;;;;;;21.41;68.25;101396.62;108799;1257;60056;-85
2023/07/11 06:21:03;;;;;;;;;;;;;;;21.48;68.14;101397.66;108693;1256;73705;-85
2023/07/11 06:23:30;;;;;;;;;;;;;;;21.52;67.93;101400.65;108528;1264;126240;-85
2023/07/11 06:25:57;;;;;;;;;;;;;;;21.58;67.90;101402.75;108683;1256;72752;-85
2023/07/11 06:28:24;;;;;;;;;;;;;;;21.63;67.67;101400.73;108715;1257;125782;-85
2023/07/11 06:30:51;;;;;;;;;;;;;;;21.63;67.36;101395.90;108689;1256;60061;-85
2023/07/11 06:33:19;;;;;;;;;;;;;;;21.64;67.12;101399.29;108676;1256;74026;-85
2023/07/11 06:35:49;;;;;;;;;;;;;;;21.68;67.20;101396.92;108629;1257;124213;-85
2023/07/11 06:38:19;;;;;;;;;;;;;;;21.76;66.90;101399.52;108757;1261;72454;-85
2023/07/11 06:40:50;;;;;;;;;;;;;;;21.81;66.78;101401.44;108672;1256;125704;-85
2023/07/11 06:43:17;;;;;;;;;;;;;;;21.82;66.45;101405.16;108678;1256;59958;-85
2023/07/11 06:45:46;;;;;;;;;;;;;;;21.79;66.37;101404.49;108539;1256;124896;-84
2023/07/11 06:48:14;;;;;;;;;;;;;;;21.78;66.24;101405.57;108835;1256;66645;-84
2023/07/11 06:50:41;;;;;;;;;;;;;;;21.73;66.24;101407.05;108784;1262;71761;-84
2023/07/11 06:53:08;;;;;;;;;;;;;;;21.68;66.27;101406.76;108740;1256;125382;-84
2023/07/11 06:55:35;;;;;;;;;;;;;;;21.64;66.35;101405.36;108693;1257;60989;-84
2023/07/11 06:58:03;;;;;;;;;;;;;;;21.63;66.42;101406.08;108629;1257;124995;-85
2023/07/11 07:00:30;;;;;;;;;;;;;;;21.59;66.07;101405.59;108706;1256;65750;-84
2023/07/11 07:02:57;;;;;;;;;;;;;;;21.51;65.80;101407.46;108773;1256;73045;-85
2023/07/11 07:05:24;;;;;;;;;;;;;;;21.46;65.82;101409.11;108628;1260;123783;-85
2023/07/11 07:07:54;;;;;;;;;;;;;;;21.42;65.74;101408.23;108734;1256;59484;-84
2023/07/11 07:10:21;;;;;;;;;;;;;;;21.36;65.76;101408.10;108604;1257;124901;-84
2023/07/11 07:12:48;;;;;;;;;;;;;;;21.34;65.94;101413.82;108750;1256;67766;-84
2023/07/11 07:15:15;;;;;;;;;;;;;;;21.34;66.11;101409.36;108878;1256;72669;-85
2023/07/11 07:17:42;;;;;;;;;;;;;;;21.34;65.98;101408.65;108758;1257;124455;-84
2023/07/11 07:20:10;;;;;;;;;;;;;;;21.36;65.99;101403.65;108830;1256;59386;-85
2023/07/11 07:22:37;;;;;;;;;;;;;;;21.44;66.14;101403.93;108758;1256;124666;-83
2023/07/11 07:25:04;;;;;;;;;;;;;;;21.55;66.15;101402.24;108910;1257;66729;-85
2023/07/11 07:27:31;;;;;;;;;;;;;;;21.66;66.05;101401.95;108711;1256;124642;-85
2023/07/11 07:29:58;;;;;;;;;;;;;;;21.79;66.13;101403.25;108756;1256;59931;-86
2023/07/11 07:32:25;;;;;;;;;;;;;;;21.89;65.90;101400.27;108740;1257;59349;-86
2023/07/11 07:34:52;;;;;;;;;;;;;;;21.96;65.89;101398.04;108658;1257;125109;-86
2023/07/11 07:37:19;;;;;;;;;;;;;;;22.07;65.66;101397.18;108917;1256;67435;-85
2023/07/11 07:39:51;;;;;;;;;;;;;;;22.17;65.34;101395.46;108689;1256;124491;-86
2023/07/11 07:42:22;;;;;;;;;;;;;;;22.27;65.15;101396.25;108876;1256;59209;-84
2023/07/11 07:44:54;;;;;;;;;;;;;;;22.42;64.99;101395.87;108768;1256;60754;-86
2023/07/11 07:47:21;;;;;;;;;;;;;;;22.54;64.74;101392.49;108641;1256;126007;-85
2023/07/11 07:49:48;;;;;;;;;;;;;;;22.62;64.54;101389.32;108671;1258;66329;-86
2023/07/11 07:52:15;;;;;;;;;;;;;;;22.72;64.35;101390.44;108596;1259;125144;-86
2023/07/11 07:54:45;;;;;;;;;;;;;;;22.81;64.15;101392.08;108757;1257;59503;-86
2023/07/11 07:57:12;;;;;;;;;;;;;;;22.87;64.05;101388.40;108764;1256;59515;-85
2023/07/11 07:59:39;;;;;;;;;;;;;;;22.92;63.88;101390.66;108593;1257;124740;-86
2023/07/11 08:02:08;;;;;;;;;;;;;;;22.90;63.51;101390.69;108830;1256;66013;-85
2023/07/11 08:04:34;;;;;;;;;;;;;;;22.84;63.01;101392.94;108539;1259;124156;-86
2023/07/11 08:07:02;;;;;;;;;;;;;;;22.83;63.26;101391.88;108744;1262;59436;-85
2023/07/11 08:09:29;;;;;;;;;;;;;;;22.88;63.22;101391.63;108747;1261;125546;-85
2023/07/11 08:12:03;;;;;;;;;;;;;;;22.93;63.25;101393.88;108698;1256;73166;-85
2023/07/11 08:14:33;;;;;;;;;;;;;;;22.90;63.04;101395.88;108933;1256;67047;-84
2023/07/11 08:17:00;;;;;;;;;;;;;;;22.82;63.15;101398.34;108623;1256;125902;-85
2023/07/11 08:19:30;;;;;;;;;;;;;;;22.71;63.21;101392.08;108836;1256;59549;-85
2023/07/11 08:21:57;;;;;;;;;;;;;;;22.63;63.37;101390.21;108668;1265;124491;-85
2023/07/11 08:24:24;;;;;;;;;;;;;;;22.54;63.51;101393.21;108780;1263;73103;-84
2023/07/11 08:26:51;;;;;;;;;;;;;;;22.44;63.48;101389.77;108916;1256;67087;-85
2023/07/11 08:29:18;;;;;;;;;;;;;;;22.33;63.47;101392.24;108584;1260;124640;-85
2023/07/11 08:31:52;;;;;;;;;;;;;;;22.19;63.64;101392.39;108714;1256;59181;-85
2023/07/11 08:34:24;;;;;;;;;;;;;;;22.01;63.86;101397.27;108525;1265;124157;-85
2023/07/11 08:37:02;;;;;;;;;;;;;;;21.83;64.02;101403.37;108750;1256;74874;-84
2023/07/11 08:39:33;;;;;;;;;;;;;;;21.64;64.35;101403.75;108676;1257;124637;-85
2023/07/11 08:42:02;;;;;;;;;;;;;;;21.52;64.93;101406.38;108739;1260;72822;-85
2023/07/11 08:44:31;;;;;;;;;;;;;;;21.44;65.23;101410.90;108764;1257;59392;-85
2023/07/11 08:47:06;;;;;;;;;;;;;;;21.35;65.34;101411.68;108604;1256;125272;-85
2023/07/11 08:49:36;;;;;;;;;;;;;;;21.27;65.65;101409.24;108638;1257;74979;-84
2023/07/11 08:52:03;;;;;;;;;;;;;;;21.23;65.97;101409.46;108636;1256;126435;-84
2023/07/11 08:54:33;;;;;;;;;;;;;;;21.22;66.24;101405.38;108908;1256;70697;-85
2023/07/11 08:57:00;;;;;;;;;;;;;;;21.29;66.50;101406.38;108667;1257;59863;-85
2023/07/11 09:00:00;;;;;;;;;;;;;;;21.44;66.60;101401.08;108660;1257;124673;-85
2023/07/11 09:02:47;;;;;;;;;;;;;;;21.71;66.85;101403.50;108323;1266;74745;-85
2023/07/11 09:05:16;;;;;;;;;;;;;;;21.95;66.68;101401.27;108054;1267;124865;-85
2023/07/11 09:07:43;;;;;;;;;;;;;;;22.11;66.62;101399.30;108303;1269;72805;-84
2023/07/11 09:10:45;;;;;;;;;;;;;;;22.29;66.60;101398.73;107882;1281;125658;-85
2023/07/11 09:13:20;;;;;;;;;;;;;;;22.52;66.48;101397.53;107431;1272;60042;-85
2023/07/11 09:15:50;;;;;;;;;;;;;;;22.73;66.25;101395.95;107313;1274;125652;-85
2023/07/11 09:18:35;;;;;;;;;;;;;;;22.92;65.90;101399.44;107514;1274;66517;-85
2023/07/11 09:21:05;;;;;;;;;;;;;;;23.11;65.77;101394.69;107540;1273;71444;-85
2023/07/11 09:23:31;;;;;;;;;;;;;;;23.28;65.43;101395.11;107354;1274;126109;-85
2023/07/11 09:26:00;;;;;;;;;;;;;;;23.51;65.49;101398.09;107547;1273;59467;-85
2023/07/11 09:28:27;;;;;;;;;;;;;;;23.76;65.29;101398.53;107359;1274;126752;-85
2023/07/11 09:30:55;;;;;;;;;;;;;;;24.01;64.88;101394.27;107574;1289;65244;-85
2023/07/11 09:33:23;;;;;;;;;;;;;;;24.30;64.63;101397.44;107590;1273;72521;-85
2023/07/11 09:35:50;;;;;;;;;;;;;;;24.60;64.38;101392.67;107391;1274;124762;-85
2023/07/11 09:38:46;;;;;;;;;;;;;;;24.89;63.98;101392.33;107722;1266;59668;-85
2023/07/11 09:41:15;;;;;;;;;;;;;;;25.19;63.30;101389.11;107732;1271;124071;-85
2023/07/11 09:43:45;;;;;;;;;;;;;;;25.38;62.94;101388.10;107818;1270;67600;-85
2023/07/11 09:46:13;;;;;;;;;;;;;;;25.49;62.01;101388.34;107779;1271;124980;-85
2023/07/11 09:48:40;;;;;;;;;;;;;;;25.56;61.56;101385.66;108289;1262;59480;-85
2023/07/11 09:51:24;;;;;;;;;;;;;;;25.56;61.19;101386.17;108455;1265;59458;-85
2023/07/11 09:53:55;;;;;;;;;;;;;;;25.64;61.04;101385.05;108259;1264;123956;-85
2023/07/11 09:56:23;;;;;;;;;;;;;;;25.72;60.96;101385.02;108352;1263;66543;-85
2023/07/11 09:58:54;;;;;;;;;;;;;;;25.78;60.63;101384.68;108318;1262;124393;-85
2023/07/11 10:01:23;;;;;;;;;;;;;;;25.79;60.28;101380.86;108392;1263;59473;-85
2023/07/11 10:03:51;;;;;;;;;;;;;;;25.81;60.18;101378.45;108243;1268;125522;-85
2023/07/11 10:06:27;;;;;;;;;;;;;;;25.86;59.86;101381.41;108330;1266;73472;-85
2023/07/11 10:08:54;;;;;;;;;;;;;;;25.86;59.57;101383.72;108262;1268;65613;-85
2023/07/11 10:11:21;;;;;;;;;;;;;;;25.90;59.32;101380.73;108117;1266;126545;-85
2023/07/11 10:13:50;;;;;;;;;;;;;;;26.02;59.43;101379.18;108156;1266;59355;-85
2023/07/11 10:16:20;;;;;;;;;;;;;;;26.08;59.17;101380.62;108253;1268;125774;-84
2023/07/11 10:18:47;;;;;;;;;;;;;;;26.16;58.77;101384.84;108745;1257;74732;-83
2023/07/11 10:21:18;;;;;;;;;;;;;;;26.19;58.52;101385.48;108735;1264;66487;-85
2023/07/11 10:23:46;;;;;;;;;;;;;;;26.25;58.58;101382.98;108624;1256;124859;-84
2023/07/11 10:26:13;;;;;;;;;;;;;;;26.30;58.25;101377.96;108701;1265;60122;-83
2023/07/11 10:28:42;;;;;;;;;;;;;;;26.41;57.72;101374.20;108795;1256;124950;-84
2023/07/11 10:31:12;;;;;;;;;;;;;;;26.52;57.50;101368.27;108797;1262;73329;-83
2023/07/11 10:33:50;;;;;;;;;;;;;;;26.65;57.13;101365.21;108618;1260;124997;-84
2023/07/11 10:36:21;;;;;;;;;;;;;;;26.69;57.25;101360.05;108694;1257;71094;-85
2023/07/11 10:38:55;;;;;;;;;;;;;;;26.63;56.67;101362.38;108727;1259;59497;-84
2023/07/11 10:41:26;;;;;;;;;;;;;;;26.52;56.79;101359.09;108602;1259;124451;-85
2023/07/11 10:43:53;;;;;;;;;;;;;;;26.43;56.53;101361.52;108723;1257;74697;-84
2023/07/11 10:46:32;;;;;;;;;;;;;;;26.45;56.61;101366.52;108620;1257;124076;-84
2023/07/11 10:49:00;;;;;;;;;;;;;;;26.54;56.35;101366.05;108822;1262;72602;-85
2023/07/11 10:51:39;;;;;;;;;;;;;;;26.59;56.35;101367.16;108462;1256;270959;-84
2023/07/11 10:54:14;;;;;;;;;;;;;;;26.53;56.31;101365.38;108770;1257;59979;-83
2023/07/11 10:56:46;;;;;;;;;;;;;;;26.37;55.90;101362.44;108758;1256;73390;-84
2023/07/11 10:59:13;;;;;;;;;;;;;;;26.19;55.92;101356.86;108722;1260;124659;-84
2023/07/11 11:01:43;;;;;;;;;;;;;;;26.12;56.47;101353.30;108795;1256;71156;-84
2023/07/11 11:04:16;;;;;;;;;;;;;;;26.23;56.48;101351.01;108809;1256;124292;-84
2023/07/11 11:07:03;;;;;;;;;;;;;;;26.24;56.15;101345.58;108850;1272;60350;-84
2023/07/11 11:09:35;;;;;;;;;;;;;;;26.17;55.76;101343.48;108631;1258;124944;-85
2023/07/11 11:12:15;;;;;;;;;;;;;;;26.06;55.74;101341.80;108916;1257;67078;-86
2023/07/11 11:14:45;;;;;;;;;;;;;;;25.94;55.71;101342.50;108823;1256;73018;-85
2023/07/11 11:17:32;;;;;;;;;;;;;;;25.83;55.85;101340.83;108850;1262;124215;-85
2023/07/11 11:20:17;;;;;;;;;;;;;;;25.73;56.10;101337.89;108779;1262;60155;-85
2023/07/11 11:22:47;;;;;;;;;;;;;;;25.60;55.69;101343.66;108677;1256;124632;-85
2023/07/11 11:25:16;;;;;;;;;;;;;;;25.37;55.44;101341.23;108677;1260;66956;-85
2023/07/11 11:27:55;;;;;;;;;;;;;;;25.09;55.28;101339.07;108607;1260;124194;-85
2023/07/11 11:30:34;;;;;;;;;;;;;;;24.96;55.98;101340.30;108781;1257;59487;-85
2023/07/11 11:33:20;;;;;;;;;;;;;;;24.94;56.06;101341.23;108842;1262;60790;-85
2023/07/11 11:36:08;;;;;;;;;;;;;;;24.93;56.06;101338.56;108726;1272;124006;-86
2023/07/11 11:38:53;;;;;;;;;;;;;;;24.97;55.55;101335.45;108718;1258;68141;-86
2023/07/11 11:41:22;;;;;;;;;;;;;;;24.94;55.41;101334.06;108751;1256;124145;-85
2023/07/11 11:43:49;;;;;;;;;;;;;;;24.86;55.27;101334.09;108739;1258;59401;-85
2023/07/11 11:46:16;;;;;;;;;;;;;;;24.72;54.93;101329.04;108626;1262;124040;-85
2023/07/11 11:48:43;;;;;;;;;;;;;;;24.58;55.22;101326.70;108805;1262;74688;-85
2023/07/11 11:51:12;;;;;;;;;;;;;;;24.51;55.23;101320.38;108790;1260;67102;-85
2023/07/11 11:53:46;;;;;;;;;;;;;;;24.50;55.25;101319.15;108708;1258;124564;-84
2023/07/11 11:56:17;;;;;;;;;;;;;;;24.48;55.38;101317.94;108880;1256;59796;-84
2023/07/11 11:58:50;;;;;;;;;;;;;;;24.49;55.49;101318.27;108696;1257;126104;-84
2023/07/11 12:01:35;;;;;;;;;;;;;;;24.52;55.60;101316.95;108815;1257;74016;-85
2023/07/11 12:04:21;;;;;;;;;;;;;;;24.63;55.70;101316.70;108748;1259;124564;-85
2023/07/11 12:06:48;;;;;;;;;;;;;;;24.68;55.18;101306.89;108809;1258;72719;-85
2023/07/11 12:09:20;;;;;;;;;;;;;;;24.73;55.25;101306.95;108781;1257;60033;-85
2023/07/11 12:12:06;;;;;;;;;;;;;;;24.79;54.93;101305.70;108811;1260;124079;-86
2023/07/11 12:14:44;;;;;;;;;;;;;;;25.01;54.76;101303.17;108760;1257;75296;-86
2023/07/11 12:17:29;;;;;;;;;;;;;;;25.22;54.44;101299.92;108712;1257;125397;-85
2023/07/11 12:19:57;;;;;;;;;;;;;;;25.54;54.29;101295.67;108770;1262;72759;-85
2023/07/11 12:22:23;;;;;;;;;;;;;;;25.78;54.11;101298.39;108626;1265;124552;-86
2023/07/11 12:24:58;;;;;;;;;;;;;;;26.02;53.83;101299.31;108830;1262;59994;-85
2023/07/11 12:27:27;;;;;;;;;;;;;;;26.34;53.63;101297.77;108825;1257;75297;-85
2023/07/11 12:30:04;;;;;;;;;;;;;;;26.64;53.21;101300.23;108830;1257;123360;-85
2023/07/11 12:32:33;;;;;;;;;;;;;;;26.94;52.72;101302.84;108749;1263;72704;-85
2023/07/11 12:35:03;;;;;;;;;;;;;;;27.13;52.10;101297.47;108653;1262;124714;-85